Terminal Aerodrome Forecast
Issued by NWS Corpus Christi, TX

Home | Current Version | Previous Version | Text Only | Print | Product List | Glossary On
Versions: 1 2 3 4 5 6 7 8 9 10 11 12 13 14
000
FTUS44 KCRP 241740
TAFCRP
TAF
KCRP 241740Z 2418/2518 17015G22KT P6SM FEW035
     FM242000 14016G23KT P6SM FEW050
     FM250100 14013KT P6SM SKC
     FM250800 15007KT P6SM SCT025
     FM251500 14010G20KT P6SM SCT050=

USA.gov is the U.S. government's official web portal to all federal, state and local government web resources and services.